createdAt,value
2023-03-13T00:00:22.283Z,1.68
2023-03-13T00:01:23.607Z,3.39
2023-03-13T00:02:20.670Z,3.17
2023-03-13T00:03:17.622Z,3.53
2023-03-13T00:04:14.517Z,3.64
2023-03-13T00:05:12.344Z,3.50
2023-03-13T00:06:09.341Z,3.23
2023-03-13T00:07:07.362Z,3.13
2023-03-13T00:08:04.340Z,3.51
2023-03-13T00:09:02.054Z,3.05
2023-03-13T00:09:58.950Z,3.21
2023-03-13T00:10:56.129Z,2.80
2023-03-13T00:11:53.515Z,2.53
2023-03-13T00:12:50.247Z,3.12
2023-03-13T00:13:46.993Z,3.04
2023-03-13T00:14:43.772Z,3.17
2023-03-13T00:15:40.616Z,1.88
2023-03-13T00:16:39.588Z,2.82
2023-03-13T00:17:36.504Z,3.13
2023-03-13T00:18:33.613Z,2.33
2023-03-13T00:19:30.450Z,3.29
2023-03-13T00:20:27.382Z,2.62
2023-03-13T00:21:27.728Z,3.13
2023-03-13T00:22:24.570Z,3.43
2023-03-13T00:23:21.420Z,3.32
2023-03-13T00:24:18.245Z,2.31
2023-03-13T00:25:15.122Z,3.12
2023-03-13T00:26:14.744Z,2.27
2023-03-13T00:27:11.489Z,2.17
2023-03-13T00:28:08.232Z,1.44
2023-03-13T00:29:05.062Z,2.70
2023-03-13T00:30:01.844Z,1.26
2023-03-13T00:31:06.552Z,3.21
2023-03-13T00:32:03.515Z,2.75
2023-03-13T00:33:00.364Z,2.78
2023-03-13T00:34:02.385Z,3.01
2023-03-13T00:34:59.372Z,3.01
2023-03-13T00:36:08.388Z,1.77
2023-03-13T00:37:05.213Z,3.18
2023-03-13T00:38:02.101Z,3.08
2023-03-13T00:38:59.780Z,1.79
2023-03-13T00:39:56.625Z,2.40
2023-03-13T00:41:14.963Z,3.33
2023-03-13T00:42:11.756Z,2.73
2023-03-13T00:43:08.604Z,3.51
2023-03-13T00:44:05.781Z,3.07
2023-03-13T00:45:03.089Z,3.05
2023-03-13T00:46:00.010Z,3.10
2023-03-13T00:46:59.137Z,2.92
2023-03-13T00:47:55.873Z,3.10
2023-03-13T00:48:53.059Z,3.39
2023-03-13T00:49:50.352Z,3.32
2023-03-13T00:50:47.222Z,3.45
2023-03-13T00:51:44.015Z,2.50
2023-03-13T00:52:40.800Z,2.05
2023-03-13T00:53:37.707Z,3.22
2023-03-13T00:54:34.457Z,3.04
2023-03-13T00:55:31.216Z,3.20
2023-03-13T00:56:29.253Z,3.36
2023-03-13T00:57:25.982Z,2.93
2023-03-13T00:58:24.556Z,3.05
2023-03-13T00:59:21.408Z,2.33
2023-03-13T01:00:18.659Z,3.02
2023-03-13T01:01:17.526Z,2.31
2023-03-13T01:02:14.363Z,3.21
2023-03-13T01:03:11.318Z,2.42
2023-03-13T01:04:11.326Z,1.73
2023-03-13T01:05:08.642Z,2.21
2023-03-13T01:06:08.753Z,2.76
2023-03-13T01:07:05.545Z,2.98
2023-03-13T01:08:02.380Z,2.90
2023-03-13T01:08:59.872Z,2.99
2023-03-13T01:09:56.614Z,2.74
2023-03-13T01:11:01.447Z,3.14
2023-03-13T01:11:58.567Z,2.93
2023-03-13T01:12:55.680Z,2.43
2023-03-13T01:13:58.327Z,0.62
2023-03-13T01:14:55.202Z,3.34
2023-03-13T01:15:52.016Z,2.25
2023-03-13T01:16:48.766Z,2.75
2023-03-13T01:17:46.454Z,3.04
2023-03-13T01:18:46.667Z,3.07
2023-03-13T01:19:43.490Z,3.23
2023-03-13T01:20:41.028Z,3.52
2023-03-13T01:21:38.359Z,1.91
2023-03-13T01:22:35.114Z,3.06
2023-03-13T01:23:32.255Z,2.74
2023-03-13T01:24:29.116Z,3.34
2023-03-13T01:25:26.039Z,3.28
2023-03-13T01:26:24.636Z,3.33
2023-03-13T01:27:21.421Z,3.20
2023-03-13T01:28:18.211Z,3.33
2023-03-13T01:29:15.022Z,3.25
2023-03-13T01:30:12.316Z,2.90
2023-03-13T01:31:21.318Z,3.31
2023-03-13T01:32:18.128Z,2.55
2023-03-13T01:33:15.808Z,3.34
2023-03-13T01:34:12.733Z,3.42
2023-03-13T01:35:09.487Z,3.12
2023-03-13T01:36:06.731Z,3.21
2023-03-13T01:37:03.570Z,3.31
2023-03-13T01:38:00.867Z,3.49
2023-03-13T01:39:00.216Z,3.41
2023-03-13T01:39:57.003Z,3.47
2023-03-13T01:40:53.876Z,2.43
2023-03-13T01:41:50.722Z,3.26
2023-03-13T01:42:56.892Z,3.34
2023-03-13T01:43:55.570Z,3.07
2023-03-13T01:44:56.141Z,3.15
2023-03-13T01:46:09.782Z,3.32
2023-03-13T01:47:06.543Z,2.05
2023-03-13T01:48:05.249Z,3.19
2023-03-13T01:49:22.625Z,3.15
2023-03-13T01:50:19.513Z,3.28
2023-03-13T01:51:50.241Z,2.98
2023-03-13T01:52:47.073Z,3.12
2023-03-13T01:53:50.229Z,3.31
2023-03-13T01:54:55.476Z,2.99
2023-03-13T01:55:55.807Z,1.85
2023-03-13T01:57:11.453Z,3.36
2023-03-13T01:58:08.600Z,2.62
2023-03-13T01:59:10.534Z,3.09
2023-03-13T02:00:16.582Z,2.79
2023-03-13T02:01:15.687Z,3.25
2023-03-13T02:02:16.081Z,3.28
2023-03-13T02:03:20.091Z,3.15
2023-03-13T02:04:22.220Z,2.43
2023-03-13T02:05:22.965Z,3.98
2023-03-13T02:06:19.858Z,3.34
2023-03-13T02:07:23.105Z,2.72
2023-03-13T02:08:56.050Z,2.86
2023-03-13T02:09:56.569Z,1.16
2023-03-13T02:11:11.520Z,1.15
2023-03-13T02:12:16.356Z,2.80
2023-03-13T02:13:17.401Z,2.72
2023-03-13T02:14:17.267Z,2.16
2023-03-13T02:15:18.736Z,2.45
2023-03-13T02:16:16.760Z,1.38
2023-03-13T02:17:14.415Z,2.09
2023-03-13T02:18:11.635Z,0.88
2023-03-13T02:19:25.083Z,2.65
2023-03-13T02:20:23.031Z,2.63
2023-03-13T02:21:43.081Z,2.91
2023-03-13T02:23:09.673Z,3.39
2023-03-13T02:24:32.647Z,3.16
2023-03-13T02:25:49.861Z,2.84
2023-03-13T02:26:46.689Z,2.55
2023-03-13T02:27:45.904Z,1.88
2023-03-13T02:28:43.235Z,1.34
2023-03-13T02:29:41.598Z,2.12
2023-03-13T02:30:43.052Z,2.04
2023-03-13T02:31:40.121Z,2.89
2023-03-13T02:32:37.652Z,-0.28
2023-03-13T02:33:42.252Z,2.99
2023-03-13T02:34:43.370Z,3.00
2023-03-13T02:35:42.148Z,2.86
2023-03-13T02:36:40.642Z,2.16
2023-03-13T02:37:38.346Z,1.84
2023-03-13T02:39:00.448Z,1.16
2023-03-13T02:40:04.635Z,2.87
2023-03-13T02:41:05.040Z,2.65
2023-03-13T02:42:03.907Z,2.27
2023-03-13T02:43:05.162Z,3.03
2023-03-13T02:44:01.914Z,2.77
2023-03-13T02:44:58.810Z,2.77
2023-03-13T02:46:17.456Z,0.02
2023-03-13T02:47:25.584Z,2.75
2023-03-13T02:48:32.700Z,2.46
2023-03-13T02:49:30.538Z,2.33
2023-03-13T02:50:27.919Z,0.36
2023-03-13T02:51:36.509Z,1.63
2023-03-13T02:52:46.757Z,0.58
2023-03-13T02:53:48.863Z,1.87
2023-03-13T02:54:50.115Z,1.75
2023-03-13T02:55:46.940Z,2.05
2023-03-13T02:56:49.161Z,1.72
2023-03-13T02:57:46.059Z,1.46
2023-03-13T02:58:51.085Z,0.44
2023-03-13T02:59:47.888Z,-1.31
2023-03-13T03:00:48.445Z,1.03
2023-03-13T03:01:45.917Z,0.29
2023-03-13T03:02:43.640Z,1.67
2023-03-13T03:03:40.585Z,1.39
2023-03-13T03:04:37.362Z,-0.35
2023-03-13T03:05:34.190Z,1.69
2023-03-13T03:06:30.880Z,1.75
2023-03-13T03:07:27.713Z,2.04
2023-03-13T03:08:24.574Z,1.22
2023-03-13T03:09:23.881Z,0.26
2023-03-13T03:10:20.665Z,0.09
2023-03-13T03:11:17.481Z,1.55
2023-03-13T03:12:14.365Z,1.77
2023-03-13T03:13:11.159Z,1.81
2023-03-13T03:14:08.911Z,2.34
2023-03-13T03:15:06.410Z,0.97
2023-03-13T03:16:12.103Z,0.71
2023-03-13T03:17:08.969Z,1.70
2023-03-13T03:18:05.750Z,0.90
2023-03-13T03:19:02.916Z,1.83
2023-03-13T03:19:59.729Z,1.96
2023-03-13T03:20:56.519Z,2.09
2023-03-13T03:21:53.312Z,2.21
2023-03-13T03:22:50.051Z,1.56
2023-03-13T03:23:47.138Z,2.26
2023-03-13T03:24:43.981Z,2.43
2023-03-13T03:25:40.975Z,1.53
2023-03-13T03:26:38.091Z,2.28
2023-03-13T03:27:36.437Z,1.94
2023-03-13T03:28:33.424Z,1.73
2023-03-13T03:29:30.199Z,1.98
2023-03-13T03:30:26.995Z,1.69
2023-03-13T03:31:24.092Z,0.24
2023-03-13T03:32:39.695Z,1.25
2023-03-13T03:33:38.046Z,0.83
2023-03-13T03:34:34.841Z,0.92
2023-03-13T03:35:31.894Z,-0.20
2023-03-13T03:36:29.374Z,0.95
2023-03-13T03:37:44.563Z,0.75
2023-03-13T03:38:42.365Z,1.12
2023-03-13T03:39:39.198Z,1.02
2023-03-13T03:40:35.936Z,1.26
2023-03-13T03:41:32.725Z,1.36
2023-03-13T03:42:29.498Z,-0.08
2023-03-13T03:43:26.522Z,0.74
2023-03-13T03:44:23.355Z,0.50
2023-03-13T03:45:20.205Z,2.22
2023-03-13T03:46:17.352Z,1.00
2023-03-13T03:47:14.418Z,1.46
2023-03-13T03:48:11.277Z,0.27
2023-03-13T03:49:08.025Z,1.23
2023-03-13T03:50:05.192Z,1.71
2023-03-13T03:51:02.345Z,1.01
2023-03-13T03:51:59.041Z,1.49
2023-03-13T03:52:55.840Z,1.19
2023-03-13T03:53:52.691Z,0.78
2023-03-13T03:54:49.435Z,1.05
2023-03-13T03:55:46.278Z,1.20
2023-03-13T03:56:43.095Z,1.14
2023-03-13T03:57:39.878Z,1.14
2023-03-13T03:58:36.755Z,1.55
2023-03-13T03:59:33.589Z,1.12
2023-03-13T04:00:30.616Z,1.21
2023-03-13T04:01:27.404Z,1.12
2023-03-13T04:02:24.214Z,0.92
2023-03-13T04:03:21.104Z,-0.08
2023-03-13T04:04:17.919Z,1.00
2023-03-13T04:05:14.738Z,1.45
2023-03-13T04:06:11.607Z,0.42
2023-03-13T04:07:08.459Z,1.24
2023-03-13T04:08:05.948Z,0.65
2023-03-13T04:09:02.721Z,-0.66
2023-03-13T04:09:59.620Z,1.09
2023-03-13T04:10:56.374Z,1.30
2023-03-13T04:11:53.238Z,0.40
2023-03-13T04:12:49.958Z,1.36
2023-03-13T04:13:46.790Z,1.04
2023-03-13T04:14:43.677Z,1.28
2023-03-13T04:15:41.687Z,1.45
2023-03-13T04:16:38.462Z,0.98
2023-03-13T04:17:35.297Z,-0.58
2023-03-13T04:18:32.092Z,-0.87
2023-03-13T04:19:28.912Z,1.22
2023-03-13T04:20:28.906Z,0.23
2023-03-13T04:21:25.915Z,1.47
2023-03-13T04:22:22.788Z,1.66
2023-03-13T04:23:19.557Z,-0.32
2023-03-13T04:24:16.355Z,0.16
2023-03-13T04:25:13.196Z,-0.22
2023-03-13T04:26:09.924Z,1.43
2023-03-13T04:27:06.755Z,1.46
2023-03-13T04:28:03.619Z,1.22
2023-03-13T04:29:00.419Z,1.75
2023-03-13T04:29:57.146Z,1.25
2023-03-13T04:30:57.553Z,-1.03
2023-03-13T04:31:54.362Z,0.71
2023-03-13T04:32:51.304Z,-0.24
2023-03-13T04:33:48.178Z,0.96
2023-03-13T04:34:47.715Z,1.37
2023-03-13T04:35:44.788Z,1.26
2023-03-13T04:36:41.688Z,0.75
2023-03-13T04:37:38.572Z,0.82
2023-03-13T04:38:35.405Z,0.75
2023-03-13T04:39:33.205Z,1.03
2023-03-13T04:40:30.078Z,0.94
2023-03-13T04:41:26.830Z,1.64
2023-03-13T04:42:23.745Z,1.83
2023-03-13T04:43:20.848Z,1.77
2023-03-13T04:44:17.633Z,1.43
2023-03-13T04:45:17.159Z,-0.99
2023-03-13T04:46:14.134Z,0.19
2023-03-13T04:47:10.999Z,1.49
2023-03-13T04:48:07.782Z,1.20
2023-03-13T04:49:06.133Z,0.23
2023-03-13T04:50:04.873Z,1.42
2023-03-13T04:51:01.710Z,1.51
2023-03-13T04:51:58.580Z,2.18
2023-03-13T04:52:55.308Z,1.70
2023-03-13T04:53:52.147Z,1.38
2023-03-13T04:54:51.169Z,-0.07
2023-03-13T04:55:50.177Z,0.76
2023-03-13T04:56:46.959Z,-0.02
2023-03-13T04:57:43.805Z,0.67
2023-03-13T04:58:40.593Z,0.11
2023-03-13T04:59:37.450Z,0.33
2023-03-13T05:00:34.391Z,0.23
2023-03-13T05:01:31.763Z,1.17
2023-03-13T05:02:29.140Z,0.40
2023-03-13T05:03:25.918Z,2.07
2023-03-13T05:04:22.747Z,-0.13
2023-03-13T05:05:19.597Z,1.97
2023-03-13T05:06:16.521Z,2.22
2023-03-13T05:07:13.296Z,2.05
2023-03-13T05:08:11.098Z,1.49
2023-03-13T05:09:08.065Z,1.75
2023-03-13T05:10:05.247Z,1.20
2023-03-13T05:11:02.661Z,0.42
2023-03-13T05:11:59.602Z,0.43
2023-03-13T05:12:56.469Z,0.36
2023-03-13T05:13:53.378Z,1.58
2023-03-13T05:14:50.412Z,1.56
2023-03-13T05:15:47.246Z,1.25
2023-03-13T05:16:44.111Z,0.22
2023-03-13T05:17:40.921Z,2.04
2023-03-13T05:18:39.336Z,1.63
2023-03-13T05:19:36.297Z,1.34
2023-03-13T05:20:33.138Z,2.26
2023-03-13T05:21:29.998Z,2.47
2023-03-13T05:22:26.907Z,2.43
2023-03-13T05:23:23.826Z,2.75
2023-03-13T05:24:20.614Z,2.18
2023-03-13T05:25:17.613Z,2.00
2023-03-13T05:26:14.371Z,2.66
2023-03-13T05:27:11.162Z,2.01
2023-03-13T05:28:08.134Z,1.99
2023-03-13T05:29:04.914Z,1.72
2023-03-13T05:30:01.702Z,1.76
2023-03-13T05:30:58.507Z,2.57
2023-03-13T05:31:55.392Z,1.07
2023-03-13T05:32:52.254Z,3.03
2023-03-13T05:33:49.140Z,2.90
2023-03-13T05:34:45.914Z,1.50
2023-03-13T05:35:43.190Z,1.50
2023-03-13T05:36:40.101Z,2.95
2023-03-13T05:37:38.437Z,3.28
2023-03-13T05:38:37.200Z,2.02
2023-03-13T05:39:33.998Z,3.52
2023-03-13T05:40:30.876Z,2.33
2023-03-13T05:41:27.696Z,3.19
2023-03-13T05:42:25.179Z,1.89
2023-03-13T05:43:21.905Z,3.13
2023-03-13T05:44:18.693Z,3.45
2023-03-13T05:45:15.463Z,3.54
2023-03-13T05:46:12.201Z,2.47
2023-03-13T05:47:08.984Z,3.66
2023-03-13T05:48:06.124Z,3.65
2023-03-13T05:49:02.901Z,3.33
2023-03-13T05:49:59.628Z,3.64
2023-03-13T05:50:56.603Z,2.97
2023-03-13T05:51:53.333Z,3.77
2023-03-13T05:52:50.170Z,3.19
2023-03-13T05:53:46.916Z,3.52
2023-03-13T05:54:43.722Z,2.83
2023-03-13T05:55:40.470Z,3.29
2023-03-13T05:56:37.334Z,2.69
2023-03-13T05:57:34.143Z,1.85
2023-03-13T05:58:30.955Z,3.24
2023-03-13T05:59:27.803Z,3.25
2023-03-13T06:00:24.619Z,2.91
2023-03-13T06:01:21.442Z,3.31
2023-03-13T06:02:18.305Z,3.54
2023-03-13T06:03:15.134Z,4.05
2023-03-13T06:04:12.074Z,3.88
2023-03-13T06:05:09.783Z,4.18
2023-03-13T06:06:06.742Z,4.32
2023-03-13T06:07:03.665Z,3.68
2023-03-13T06:08:00.414Z,4.31
2023-03-13T06:08:57.228Z,4.53
2023-03-13T06:09:54.046Z,4.31
2023-03-13T06:10:50.796Z,3.95
2023-03-13T06:11:47.671Z,3.84
2023-03-13T06:12:44.661Z,4.75
2023-03-13T06:13:41.462Z,4.55
2023-03-13T06:14:38.217Z,3.54
2023-03-13T06:15:34.999Z,3.29
2023-03-13T06:16:31.962Z,3.55
2023-03-13T06:17:29.503Z,3.67
2023-03-13T06:18:27.229Z,3.86
2023-03-13T06:19:24.474Z,4.56
2023-03-13T06:20:22.803Z,4.57
2023-03-13T06:21:19.580Z,4.69
2023-03-13T06:22:17.122Z,3.25
2023-03-13T06:23:13.943Z,4.84
2023-03-13T06:24:10.687Z,4.74
2023-03-13T06:25:08.261Z,5.06
2023-03-13T06:26:05.290Z,3.95
2023-03-13T06:27:02.186Z,3.43
2023-03-13T06:27:58.959Z,5.17
2023-03-13T06:28:56.846Z,5.37
2023-03-13T06:29:53.686Z,4.98
2023-03-13T06:30:50.490Z,5.12
2023-03-13T06:31:47.389Z,5.13
2023-03-13T06:32:44.363Z,3.85
2023-03-13T06:33:41.211Z,5.28
2023-03-13T06:34:38.043Z,5.37
2023-03-13T06:35:46.168Z,4.71
2023-03-13T06:36:50.232Z,4.71
2023-03-13T06:37:47.174Z,2.74
2023-03-13T06:38:43.992Z,4.58
2023-03-13T06:39:40.856Z,4.29
2023-03-13T06:40:37.931Z,4.10
2023-03-13T06:41:34.702Z,3.77
2023-03-13T06:42:31.417Z,4.08
2023-03-13T06:43:28.484Z,3.29
2023-03-13T06:44:25.558Z,2.62
2023-03-13T06:45:22.308Z,2.99
2023-03-13T06:46:23.023Z,3.93
2023-03-13T06:47:19.844Z,3.79
2023-03-13T06:48:17.390Z,3.23
2023-03-13T06:49:14.162Z,4.08
2023-03-13T06:50:11.418Z,3.67
2023-03-13T06:51:14.966Z,4.45
2023-03-13T06:52:11.851Z,4.32
2023-03-13T06:53:18.828Z,2.99
2023-03-13T06:54:15.664Z,3.69
2023-03-13T06:55:13.102Z,3.77
2023-03-13T06:56:10.537Z,3.78
2023-03-13T06:57:07.291Z,3.97
2023-03-13T06:58:04.091Z,4.73
2023-03-13T06:59:00.994Z,4.72
2023-03-13T06:59:57.714Z,4.84
2023-03-13T07:00:54.626Z,3.95
2023-03-13T07:01:51.422Z,4.92
2023-03-13T07:02:48.383Z,5.04
2023-03-13T07:03:46.811Z,3.84
2023-03-13T07:04:45.296Z,4.77
2023-03-13T07:05:42.154Z,3.34
2023-03-13T07:06:39.034Z,4.27
2023-03-13T07:07:35.820Z,2.91
2023-03-13T07:08:33.976Z,3.93
2023-03-13T07:09:30.990Z,3.13
2023-03-13T07:10:27.834Z,4.15
2023-03-13T07:11:26.027Z,3.81
2023-03-13T07:12:22.853Z,3.83
2023-03-13T07:13:22.473Z,4.32
2023-03-13T07:14:19.393Z,4.29
2023-03-13T07:15:16.292Z,3.80
2023-03-13T07:16:14.265Z,3.35
2023-03-13T07:17:11.182Z,1.64
2023-03-13T07:18:07.984Z,4.41
2023-03-13T07:19:04.754Z,4.12
2023-03-13T07:20:01.790Z,4.68
2023-03-13T07:21:00.969Z,4.61
2023-03-13T07:21:57.813Z,4.49
2023-03-13T07:22:54.550Z,4.27
2023-03-13T07:23:51.334Z,3.12
2023-03-13T07:24:49.307Z,3.93
2023-03-13T07:25:56.485Z,3.82
2023-03-13T07:27:05.415Z,4.33
2023-03-13T07:28:04.270Z,4.07
2023-03-13T07:29:01.250Z,3.24
2023-03-13T07:29:58.198Z,3.04
2023-03-13T07:30:55.216Z,4.47
2023-03-13T07:31:52.109Z,3.83
2023-03-13T07:32:49.219Z,4.02
2023-03-13T07:33:46.362Z,3.54
2023-03-13T07:34:44.710Z,3.86
2023-03-13T07:35:41.598Z,3.64
2023-03-13T07:36:38.601Z,4.49
2023-03-13T07:37:35.485Z,4.71
2023-03-13T07:38:32.442Z,4.70
2023-03-13T07:39:29.205Z,4.55
2023-03-13T07:40:25.986Z,4.10
2023-03-13T07:41:23.248Z,5.10
2023-03-13T07:42:19.962Z,3.65
2023-03-13T07:43:16.813Z,4.36
2023-03-13T07:44:13.574Z,4.27
2023-03-13T07:45:10.918Z,4.40
2023-03-13T07:46:12.205Z,4.08
2023-03-13T07:47:09.215Z,4.78
2023-03-13T07:48:06.545Z,3.62
2023-03-13T07:49:03.422Z,3.45
2023-03-13T07:50:00.292Z,4.63
2023-03-13T07:50:58.004Z,4.90
2023-03-13T07:51:55.256Z,4.46
2023-03-13T07:52:52.048Z,5.28
2023-03-13T07:53:49.477Z,4.67
2023-03-13T07:54:46.283Z,4.84
2023-03-13T07:55:43.043Z,4.60
2023-03-13T07:56:40.524Z,4.59
2023-03-13T07:57:37.274Z,5.32
2023-03-13T07:58:36.612Z,4.65
2023-03-13T07:59:33.585Z,5.29
2023-03-13T08:00:30.444Z,5.62
2023-03-13T08:01:30.564Z,4.80
2023-03-13T08:02:27.883Z,4.42
2023-03-13T08:03:25.596Z,5.29
2023-03-13T08:04:22.537Z,4.13
2023-03-13T08:05:20.274Z,5.36
2023-03-13T08:06:26.348Z,5.10
2023-03-13T08:07:23.203Z,5.47
2023-03-13T08:08:20.528Z,4.85
2023-03-13T08:09:17.325Z,5.29
2023-03-13T08:10:14.647Z,4.92
2023-03-13T08:11:20.350Z,5.98
2023-03-13T08:12:17.155Z,5.83
2023-03-13T08:13:14.142Z,4.95
2023-03-13T08:14:11.109Z,5.72
2023-03-13T08:15:08.669Z,5.62
2023-03-13T08:16:07.883Z,5.67
2023-03-13T08:17:04.891Z,5.64
2023-03-13T08:18:01.752Z,4.97
2023-03-13T08:19:00.198Z,4.85
2023-03-13T08:19:57.037Z,5.22
2023-03-13T08:20:53.808Z,5.35
2023-03-13T08:21:50.600Z,5.21
2023-03-13T08:22:47.854Z,5.51
2023-03-13T08:23:44.709Z,4.85
2023-03-13T08:24:41.490Z,4.78
2023-03-13T08:25:38.279Z,3.92
2023-03-13T08:26:37.720Z,3.89
2023-03-13T08:27:34.448Z,5.02
2023-03-13T08:28:31.204Z,5.57
2023-03-13T08:29:27.988Z,4.34
2023-03-13T08:30:24.749Z,4.61
2023-03-13T08:31:43.456Z,4.77
2023-03-13T08:32:40.717Z,4.60
2023-03-13T08:33:38.423Z,5.16
2023-03-13T08:34:36.922Z,5.85
2023-03-13T08:35:33.829Z,4.63
2023-03-13T08:36:36.322Z,5.55
2023-03-13T08:37:33.089Z,5.15
2023-03-13T08:38:29.883Z,4.61
2023-03-13T08:39:27.098Z,5.75
2023-03-13T08:40:23.944Z,6.04
2023-03-13T08:41:23.881Z,6.12
2023-03-13T08:42:20.630Z,6.03
2023-03-13T08:43:17.397Z,4.77
2023-03-13T08:44:17.271Z,5.46
2023-03-13T08:45:14.100Z,5.73
2023-03-13T08:46:11.342Z,6.19
2023-03-13T08:47:09.107Z,5.56
2023-03-13T08:48:06.106Z,5.46
2023-03-13T08:49:04.450Z,5.81
2023-03-13T08:50:01.266Z,5.61
2023-03-13T08:51:12.447Z,5.66
2023-03-13T08:52:09.161Z,6.70
2023-03-13T08:53:05.921Z,5.29
2023-03-13T08:54:04.107Z,7.11
2023-03-13T08:55:00.876Z,7.46
2023-03-13T08:55:57.770Z,7.55
2023-03-13T08:56:54.604Z,7.70
2023-03-13T08:57:51.433Z,7.33
2023-03-13T08:58:56.089Z,7.59
2023-03-13T08:59:52.905Z,7.36
2023-03-13T09:00:49.853Z,7.89
2023-03-13T09:01:46.738Z,7.98
2023-03-13T09:02:43.654Z,6.26
2023-03-13T09:03:42.343Z,6.59
2023-03-13T09:04:39.210Z,7.14
2023-03-13T09:05:54.666Z,6.87
2023-03-13T09:06:52.524Z,6.56
2023-03-13T09:07:50.391Z,5.52
2023-03-13T09:08:47.680Z,6.69
2023-03-13T09:09:44.656Z,6.84
2023-03-13T09:10:41.856Z,3.93
2023-03-13T09:11:40.059Z,7.12
2023-03-13T09:12:36.817Z,7.13
2023-03-13T09:13:36.334Z,6.27
2023-03-13T09:14:35.186Z,6.67
2023-03-13T09:15:33.429Z,6.37
2023-03-13T09:16:32.592Z,6.54
2023-03-13T09:17:29.326Z,5.11
2023-03-13T09:18:27.268Z,6.70
2023-03-13T09:19:24.031Z,7.01
2023-03-13T09:20:20.901Z,7.28
2023-03-13T09:21:20.857Z,6.33
2023-03-13T09:22:17.583Z,7.13
2023-03-13T09:23:14.307Z,6.11
2023-03-13T09:24:11.073Z,7.14
2023-03-13T09:25:08.109Z,6.88
2023-03-13T09:26:05.102Z,6.19
2023-03-13T09:27:01.957Z,6.50
2023-03-13T09:27:58.702Z,5.70
2023-03-13T09:28:56.979Z,6.45
2023-03-13T09:29:54.561Z,7.15
2023-03-13T09:30:51.765Z,6.76
2023-03-13T09:31:50.870Z,7.40
2023-03-13T09:32:47.745Z,7.55
2023-03-13T09:33:47.503Z,7.03
2023-03-13T09:34:44.308Z,6.18
2023-03-13T09:35:41.366Z,7.21
2023-03-13T09:36:38.164Z,8.10
2023-03-13T09:37:34.973Z,7.73
2023-03-13T09:38:32.263Z,7.36
2023-03-13T09:39:29.122Z,7.16
2023-03-13T09:40:28.673Z,7.25
2023-03-13T09:42:07.809Z,7.40
2023-03-13T09:43:05.059Z,7.57
2023-03-13T09:44:11.599Z,7.94
2023-03-13T09:45:18.001Z,7.27
2023-03-13T09:46:37.769Z,7.53
2023-03-13T09:47:48.445Z,7.10
2023-03-13T09:48:55.138Z,7.02
2023-03-13T09:50:10.009Z,8.30
2023-03-13T09:51:26.320Z,8.05
2023-03-13T09:52:26.505Z,7.63
2023-03-13T09:53:44.091Z,6.79
2023-03-13T09:54:54.861Z,7.85
2023-03-13T09:55:52.765Z,7.91
2023-03-13T09:57:21.509Z,7.28
2023-03-13T09:58:23.051Z,7.74
2023-03-13T09:59:29.463Z,7.37
2023-03-13T10:00:34.478Z,7.91
2023-03-13T10:01:35.206Z,7.37
2023-03-13T10:02:35.238Z,6.33
2023-03-13T10:03:44.835Z,7.73
2023-03-13T10:04:51.609Z,7.89
2023-03-13T10:06:27.500Z,8.14
2023-03-13T10:07:24.321Z,7.90
2023-03-13T10:08:26.426Z,7.72
2023-03-13T10:09:30.101Z,7.62
2023-03-13T10:10:43.703Z,6.66
2023-03-13T10:11:58.980Z,7.58
2023-03-13T10:13:09.861Z,8.15
2023-03-13T10:14:20.976Z,7.26
2023-03-13T10:15:39.314Z,8.69
2023-03-13T10:16:50.313Z,8.57
2023-03-13T10:17:47.527Z,8.39
2023-03-13T10:18:52.963Z,9.07
2023-03-13T10:19:59.045Z,7.90
2023-03-13T10:21:16.397Z,8.58
2023-03-13T10:22:25.358Z,8.01
2023-03-13T10:23:45.568Z,8.52
2023-03-13T10:24:54.787Z,8.60
2023-03-13T10:25:51.584Z,8.49
2023-03-13T10:26:48.329Z,6.97
2023-03-13T10:27:50.998Z,8.50
2023-03-13T10:28:48.332Z,8.04
2023-03-13T10:29:45.232Z,9.24
2023-03-13T10:30:48.465Z,8.82
2023-03-13T10:31:57.242Z,8.05
2023-03-13T10:33:14.671Z,7.63
2023-03-13T10:34:14.375Z,8.76
2023-03-13T10:35:21.682Z,8.80
2023-03-13T10:36:19.955Z,9.10
2023-03-13T10:37:22.418Z,9.15
2023-03-13T10:38:22.782Z,9.33
2023-03-13T10:39:26.090Z,9.61
2023-03-13T10:40:26.781Z,9.71
2023-03-13T10:41:50.743Z,10.20
2023-03-13T10:42:47.823Z,10.36
2023-03-13T10:43:58.681Z,10.17
2023-03-13T10:45:04.573Z,9.63
2023-03-13T10:46:03.916Z,9.36
2023-03-13T10:47:03.020Z,8.05
2023-03-13T10:48:20.502Z,9.40
2023-03-13T10:49:23.699Z,9.17
2023-03-13T10:50:23.871Z,8.88
2023-03-13T10:51:31.860Z,9.41
2023-03-13T10:52:40.423Z,9.13
2023-03-13T10:53:37.715Z,10.45
2023-03-13T10:54:39.573Z,10.47
2023-03-13T10:55:44.451Z,10.22
2023-03-13T10:56:41.456Z,9.50
2023-03-13T10:57:38.471Z,9.81
2023-03-13T10:58:42.710Z,10.69
2023-03-13T10:59:44.507Z,10.38
2023-03-13T11:00:42.606Z,10.81
2023-03-13T11:01:44.868Z,10.83
2023-03-13T11:02:45.011Z,10.73
2023-03-13T11:03:44.090Z,10.46
2023-03-13T11:04:40.904Z,10.52
2023-03-13T11:05:45.623Z,10.96
2023-03-13T11:06:42.456Z,9.82
2023-03-13T11:07:40.601Z,9.53
2023-03-13T11:08:37.766Z,9.63
2023-03-13T11:09:34.695Z,7.28
2023-03-13T11:10:32.590Z,10.02
2023-03-13T11:11:31.121Z,10.04
2023-03-13T11:12:29.214Z,10.23
2023-03-13T11:13:37.337Z,8.59
2023-03-13T11:14:36.051Z,9.65
2023-03-13T11:15:57.362Z,9.94
2023-03-13T11:17:29.706Z,9.90
2023-03-13T11:19:02.082Z,10.36
2023-03-13T11:20:26.013Z,10.36
2023-03-13T11:21:38.994Z,10.62
2023-03-13T11:22:38.718Z,10.82
2023-03-13T11:23:45.877Z,9.94
2023-03-13T11:25:13.821Z,10.84
2023-03-13T11:26:35.256Z,10.78
2023-03-13T11:28:09.518Z,10.50
2023-03-13T11:29:24.778Z,10.61
2023-03-13T11:30:36.763Z,10.44
2023-03-13T11:31:42.589Z,9.08
2023-03-13T11:32:49.096Z,10.09
2023-03-13T11:34:03.728Z,10.61
2023-03-13T11:35:10.951Z,10.98
2023-03-13T11:36:35.469Z,10.72
2023-03-13T11:37:35.783Z,10.49
2023-03-13T11:38:53.626Z,10.63
2023-03-13T11:40:08.946Z,10.74
2023-03-13T11:41:06.837Z,10.91
2023-03-13T11:42:21.889Z,11.05
2023-03-13T11:43:41.049Z,9.50
2023-03-13T11:45:02.414Z,10.48
2023-03-13T11:46:20.589Z,10.66
2023-03-13T11:47:20.273Z,10.64
2023-03-13T11:48:41.983Z,10.32
2023-03-13T11:50:15.591Z,10.56
2023-03-13T11:51:49.421Z,10.34
2023-03-13T11:52:58.369Z,10.27
2023-03-13T11:54:26.047Z,10.41
2023-03-13T11:55:44.353Z,10.01
2023-03-13T11:56:53.347Z,9.96
2023-03-13T11:58:21.530Z,10.70
2023-03-13T11:59:43.050Z,10.79
2023-03-13T12:00:53.191Z,10.40
2023-03-13T12:02:00.272Z,10.60
2023-03-13T12:03:05.979Z,10.58
2023-03-13T12:04:23.023Z,11.16
2023-03-13T12:05:22.049Z,11.33
2023-03-13T12:06:58.669Z,11.52
2023-03-13T12:08:01.517Z,11.57
2023-03-13T12:09:19.814Z,11.35
2023-03-13T12:10:35.582Z,11.06
2023-03-13T12:12:04.724Z,11.02
2023-03-13T12:13:16.066Z,11.16
2023-03-13T12:14:31.495Z,10.97
2023-03-13T12:15:43.393Z,10.84
2023-03-13T12:16:52.173Z,10.93
2023-03-13T12:18:02.917Z,10.81
2023-03-13T12:19:02.403Z,11.20
2023-03-13T12:20:07.974Z,9.54
2023-03-13T12:21:23.701Z,10.79
2023-03-13T12:22:28.897Z,11.23
2023-03-13T12:23:45.735Z,11.11
2023-03-13T12:24:54.092Z,10.60
2023-03-13T12:26:04.834Z,11.23
2023-03-13T12:27:32.855Z,11.11
2023-03-13T12:28:35.768Z,11.12
2023-03-13T12:29:40.646Z,11.34
2023-03-13T12:31:13.021Z,8.64
2023-03-13T12:32:22.332Z,11.53
2023-03-13T12:33:36.133Z,11.66
2023-03-13T12:35:08.409Z,11.65
2023-03-13T12:36:18.960Z,11.34
2023-03-13T12:37:44.625Z,11.48
2023-03-13T12:38:50.751Z,10.75
2023-03-13T12:40:33.752Z,10.69
2023-03-13T12:41:42.114Z,10.73
2023-03-13T12:42:49.657Z,11.42
2023-03-13T12:44:08.415Z,10.24
2023-03-13T12:45:09.908Z,11.14
2023-03-13T12:46:36.017Z,11.57
2023-03-13T12:47:43.911Z,10.49
2023-03-13T12:48:56.106Z,11.38
2023-03-13T12:50:20.459Z,11.40
2023-03-13T12:51:52.805Z,11.43
2023-03-13T12:53:07.832Z,11.72
2023-03-13T12:54:22.145Z,11.66
2023-03-13T12:55:38.806Z,11.39
2023-03-13T12:57:28.526Z,10.91
2023-03-13T12:58:53.434Z,11.90
2023-03-13T13:00:05.715Z,11.43
2023-03-13T13:01:06.174Z,11.29
2023-03-13T13:02:17.794Z,11.46
2023-03-13T13:03:17.161Z,11.83
2023-03-13T13:04:28.409Z,11.59
2023-03-13T13:05:25.378Z,11.57
2023-03-13T13:06:22.682Z,11.51
2023-03-13T13:07:28.115Z,11.73
2023-03-13T13:08:28.109Z,11.79
2023-03-13T13:09:36.129Z,10.56
2023-03-13T13:10:35.351Z,11.11
2023-03-13T13:11:35.317Z,11.49
2023-03-13T13:12:32.637Z,10.10
2023-03-13T13:13:32.005Z,11.57
2023-03-13T13:14:28.780Z,11.59
2023-03-13T13:15:29.018Z,11.80
2023-03-13T13:16:28.628Z,11.44
2023-03-13T13:17:28.233Z,11.61
2023-03-13T13:18:28.292Z,11.09
2023-03-13T13:19:25.115Z,11.62
2023-03-13T13:20:28.310Z,11.66
2023-03-13T13:21:26.773Z,11.15
2023-03-13T13:22:38.645Z,11.61
2023-03-13T13:23:43.833Z,11.58
2023-03-13T13:24:50.217Z,11.85
2023-03-13T13:25:47.976Z,11.86
2023-03-13T13:26:51.292Z,12.04
2023-03-13T13:27:52.004Z,10.90
2023-03-13T13:28:48.813Z,10.66
2023-03-13T13:29:48.354Z,11.87